Weather at Moose City Airport

Public forecast

Using degrees Fahrenheit for public forecast. Weather courtesy of forecast.io.

Closest aviation weather report (METAR) to Moose City Airport

Closest report is Pincher Creek Airport, 36.6 nm (67.8 km) NNE.

2024/07/19 21:00 (retrieved 1 hour ago)

CZPC 192100Z AUTO VRB08KT 9SM CLR 31/05 A3019 RMK SLP200 DENSITY ALT 6400FT

Closest aviation forecast (TAF) to Moose City Airport

Closest forecast is Glacier Park International Airport, 42.1 nm (77.9 km) SSE.

2024/07/19 18:22 (retrieved 4 hours ago)

TAF KGPI 191720Z 1918/2018 02009KT P6SM SKC FM192200 VRB06KT P6SM SKC FM200600 00000KT 6SM FU SKC